Time;durP1;ratioP1;P1;durP2;ratioP2;P2;SDS_P1;SDS_P2;PMS_P1;PMS_P2;Temp;Humidity;BMP_temperature;BMP_pressure;BME280_temperature;BME280_humidity;BME280_pressure;Samples;Min_cycle;Max_cycle;Signal;HPM_P1;HPM_P2
2022/11/10 00:02:12;;;;;;;3.70;3.40;;;;;;;;;;5047302;28;20223;-70
2022/11/10 00:04:38;;;;;;;3.90;3.47;;;;;;;;;;5058280;28;20206;-70
2022/11/10 00:07:04;;;;;;;4.25;3.58;;;;;;;;;;5041901;28;20225;-70
2022/11/10 00:09:30;;;;;;;3.58;3.28;;;;;;;;;;5042965;28;20505;-70
2022/11/10 00:11:57;;;;;;;3.47;3.28;;;;;;;;;;5063859;28;20197;-70
2022/11/10 00:17:10;;;;;;;4.22;3.92;;;;;;;;;;5063953;28;20216;-70
2022/11/10 00:19:36;;;;;;;3.08;2.97;;;;;;;;;;5063414;28;20204;-70
2022/11/10 00:22:02;;;;;;;4.20;3.13;;;;;;;;;;5064064;28;20197;-70
2022/11/10 00:24:29;;;;;;;3.78;3.42;;;;;;;;;;5063799;28;20197;-70
2022/11/10 00:26:55;;;;;;;3.33;3.08;;;;;;;;;;5063695;28;20221;-70
2022/11/10 00:29:22;;;;;;;3.40;3.08;;;;;;;;;;5063475;28;20232;-70
2022/11/10 00:31:48;;;;;;;3.47;3.17;;;;;;;;;;5063665;28;20505;-70
2022/11/10 00:34:16;;;;;;;3.53;3.30;;;;;;;;;;5063568;28;20205;-70
2022/11/10 00:36:43;;;;;;;3.40;3.10;;;;;;;;;;5063991;28;20402;-70
2022/11/10 00:39:10;;;;;;;3.63;3.42;;;;;;;;;;5063478;28;20201;-70
2022/11/10 00:41:36;;;;;;;3.60;3.45;;;;;;;;;;5063491;28;20496;-70
2022/11/10 00:44:03;;;;;;;3.00;2.78;;;;;;;;;;5063533;28;20205;-70
2022/11/10 00:46:29;;;;;;;4.10;2.42;;;;;;;;;;5063337;28;20224;-70
2022/11/10 00:48:55;;;;;;;2.55;2.42;;;;;;;;;;5063148;28;20204;-70
2022/11/10 00:51:24;;;;;;;2.90;1.90;;;;;;;;;;5063580;28;20212;-70
2022/11/10 00:53:51;;;;;;;2.58;2.38;;;;;;;;;;5063438;28;20203;-70
2022/11/10 00:56:17;;;;;;;2.25;2.03;;;;;;;;;;5063329;28;20384;-70
2022/11/10 00:58:44;;;;;;;2.10;2.00;;;;;;;;;;5062997;28;20271;-70
2022/11/10 01:01:10;;;;;;;1.98;1.70;;;;;;;;;;5063076;28;20401;-70
2022/11/10 01:03:37;;;;;;;1.98;1.88;;;;;;;;;;5063243;28;20205;-70
2022/11/10 01:06:05;;;;;;;2.25;2.20;;;;;;;;;;5063151;28;20427;-70
2022/11/10 01:08:33;;;;;;;7.53;2.00;;;;;;;;;;5062977;28;20492;-70
2022/11/10 01:11:02;;;;;;;3.60;1.77;;;;;;;;;;5063067;28;20205;-70
2022/11/10 01:13:29;;;;;;;2.63;1.92;;;;;;;;;;5062938;28;20369;-70
2022/11/10 01:15:55;;;;;;;2.97;2.10;;;;;;;;;;5062904;28;20496;-70
2022/11/10 01:18:21;;;;;;;5.70;2.55;;;;;;;;;;5062692;28;20435;-70
2022/11/10 01:20:50;;;;;;;3.38;2.10;;;;;;;;;;5062822;28;20193;-70
2022/11/10 01:23:16;;;;;;;2.70;2.50;;;;;;;;;;5062754;28;20204;-70
2022/11/10 01:25:44;;;;;;;2.47;2.28;;;;;;;;;;5062766;28;20535;-70
2022/11/10 01:28:10;;;;;;;2.47;2.28;;;;;;;;;;5062293;28;20225;-70
2022/11/10 01:30:36;;;;;;;4.78;2.10;;;;;;;;;;5062527;28;20200;-70
2022/11/10 01:33:03;;;;;;;2.10;2.00;;;;;;;;;;5062611;28;20204;-70
2022/11/10 01:35:29;;;;;;;2.10;2.00;;;;;;;;;;5062492;28;20196;-70
2022/11/10 01:37:56;;;;;;;2.25;2.15;;;;;;;;;;5062288;28;20208;-70
2022/11/10 01:40:22;;;;;;;2.08;1.98;;;;;;;;;;5062383;28;20225;-70
2022/11/10 01:42:51;;;;;;;3.13;2.10;;;;;;;;;;5062322;28;20223;-70
2022/11/10 01:45:34;;;;;;;2.08;1.98;;;;;;;;;;5062448;28;20454;-70
2022/11/10 01:48:02;;;;;;;3.20;2.17;;;;;;;;;;5062183;28;20436;-70
2022/11/10 01:50:32;;;;;;;2.67;2.47;;;;;;;;;;5062294;28;20527;-70
2022/11/10 01:53:01;;;;;;;2.22;2.15;;;;;;;;;;5061423;28;20212;-70
2022/11/10 01:55:27;;;;;;;1.88;1.73;;;;;;;;;;5062573;28;20357;-70
2022/11/10 01:57:55;;;;;;;2.42;2.33;;;;;;;;;;5062012;28;20197;-70
2022/11/10 02:00:21;;;;;;;3.25;2.60;;;;;;;;;;5062241;28;20219;-70
2022/11/10 02:02:50;;;;;;;2.08;2.03;;;;;;;;;;5062274;28;20197;-70
2022/11/10 02:05:16;;;;;;;2.55;2.45;;;;;;;;;;5061985;28;20200;-70
2022/11/10 02:07:43;;;;;;;2.33;2.30;;;;;;;;;;5061632;28;20220;-70
2022/11/10 02:10:14;;;;;;;2.72;2.53;;;;;;;;;;5062407;28;20211;-70
2022/11/10 02:12:40;;;;;;;2.45;2.35;;;;;;;;;;5061856;28;20197;-70
2022/11/10 02:15:10;;;;;;;3.10;2.70;;;;;;;;;;5062080;28;20379;-70
2022/11/10 02:17:36;;;;;;;3.20;3.00;;;;;;;;;;5061041;28;20193;-70
2022/11/10 02:20:05;;;;;;;3.38;2.90;;;;;;;;;;5061694;28;20403;-70
2022/11/10 02:22:32;;;;;;;2.78;2.58;;;;;;;;;;5061991;28;20203;-70
2022/11/10 02:24:59;;;;;;;2.85;2.25;;;;;;;;;;5061991;28;20201;-70
2022/11/10 02:27:25;;;;;;;4.40;2.45;;;;;;;;;;5061471;28;20240;-70
2022/11/10 02:29:52;;;;;;;2.50;2.40;;;;;;;;;;5061581;28;20200;-70
2022/11/10 02:32:18;;;;;;;5.50;2.85;;;;;;;;;;5061617;28;20219;-70
2022/11/10 02:34:44;;;;;;;2.75;2.63;;;;;;;;;;5061946;28;20203;-70
2022/11/10 02:37:11;;;;;;;3.22;2.50;;;;;;;;;;5061741;28;20508;-70
2022/11/10 02:39:38;;;;;;;2.55;2.40;;;;;;;;;;5061489;28;20426;-70
2022/11/10 02:42:09;;;;;;;2.10;2.00;;;;;;;;;;5061610;28;20197;-70
2022/11/10 02:44:35;;;;;;;3.17;2.72;;;;;;;;;;5061615;28;20496;-70
2022/11/10 02:47:02;;;;;;;6.18;2.63;;;;;;;;;;5061301;28;20212;-70
2022/11/10 02:49:28;;;;;;;3.30;2.33;;;;;;;;;;5061470;28;20197;-70
2022/11/10 02:51:54;;;;;;;2.22;2.13;;;;;;;;;;5061723;28;20204;-70
2022/11/10 02:54:21;;;;;;;3.38;2.47;;;;;;;;;;5061469;28;20220;-70
2022/11/10 02:56:48;;;;;;;4.22;2.58;;;;;;;;;;5061392;28;20212;-70
2022/11/10 02:59:15;;;;;;;2.40;2.30;;;;;;;;;;5061705;28;20380;-70
2022/11/10 03:01:41;;;;;;;2.30;2.20;;;;;;;;;;5061597;28;20208;-70
2022/11/10 03:04:07;;;;;;;2.30;2.10;;;;;;;;;;5062251;28;20529;-70
2022/11/10 03:06:34;;;;;;;2.70;2.50;;;;;;;;;;5065687;28;20515;-70
2022/11/10 03:09:00;;;;;;;2.63;2.47;;;;;;;;;;5065355;28;20204;-70
2022/11/10 03:11:26;;;;;;;3.05;2.55;;;;;;;;;;5065249;28;20393;-70
2022/11/10 03:13:54;;;;;;;5.15;2.40;;;;;;;;;;5065315;28;20206;-70
2022/11/10 03:16:20;;;;;;;2.03;1.90;;;;;;;;;;5065117;28;20205;-70
2022/11/10 03:18:46;;;;;;;2.20;2.00;;;;;;;;;;5064893;28;20204;-70
2022/11/10 03:21:13;;;;;;;2.65;2.13;;;;;;;;;;5065182;28;20201;-70
2022/11/10 03:23:39;;;;;;;4.68;2.00;;;;;;;;;;5064697;28;20197;-70
2022/11/10 03:26:06;;;;;;;1.92;1.83;;;;;;;;;;5064635;28;20365;-70
2022/11/10 03:28:33;;;;;;;3.90;2.25;;;;;;;;;;5064251;28;20535;-70
2022/11/10 03:31:00;;;;;;;5.43;2.45;;;;;;;;;;5064841;28;20213;-70
2022/11/10 03:33:26;;;;;;;3.72;2.20;;;;;;;;;;5064660;28;20402;-70
2022/11/10 03:35:53;;;;;;;6.03;1.92;;;;;;;;;;5064687;28;20197;-70
2022/11/10 03:38:19;;;;;;;4.30;1.83;;;;;;;;;;5064400;28;20264;-70
2022/11/10 03:40:45;;;;;;;2.28;1.67;;;;;;;;;;5064315;28;20211;-70
2022/11/10 03:43:12;;;;;;;3.25;2.00;;;;;;;;;;5064237;28;20534;-70
2022/11/10 03:45:38;;;;;;;3.85;1.92;;;;;;;;;;5064526;28;20197;-70
2022/11/10 03:48:06;;;;;;;3.92;1.83;;;;;;;;;;5063861;28;20227;-70
2022/11/10 03:50:32;;;;;;;4.38;1.80;;;;;;;;;;5064223;28;20197;-70
2022/11/10 03:52:58;;;;;;;3.85;1.70;;;;;;;;;;5064306;28;20369;-70
2022/11/10 03:55:25;;;;;;;3.15;1.83;;;;;;;;;;5064104;28;20212;-70
2022/11/10 03:57:51;;;;;;;3.78;1.95;;;;;;;;;;5063582;28;20194;-70
2022/11/10 04:00:17;;;;;;;5.50;1.88;;;;;;;;;;5064237;28;20497;-70
2022/11/10 04:02:44;;;;;;;3.50;2.20;;;;;;;;;;5063796;28;20204;-70
2022/11/10 04:10:43;;;;;;;2.38;2.17;;;;;;;;;;5064167;28;20204;-70
2022/11/10 04:15:53;;;;;;;2.35;1.80;;;;;;;;;;5062963;28;20204;-70
2022/11/10 04:18:28;;;;;;;4.70;2.15;;;;;;;;;;5063340;28;20208;-70
2022/11/10 04:20:56;;;;;;;3.15;1.92;;;;;;;;;;5063520;28;20197;-70
2022/11/10 04:23:29;;;;;;;2.67;2.08;;;;;;;;;;5063765;28;20243;-70
2022/11/10 04:28:42;;;;;;;3.92;2.08;;;;;;;;;;5063113;28;20223;-70
2022/11/10 04:31:08;;;;;;;1.95;1.85;;;;;;;;;;5063413;28;20213;-70
2022/11/10 04:33:35;;;;;;;7.88;1.98;;;;;;;;;;5063291;28;20205;-70
2022/11/10 04:36:02;;;;;;;6.43;2.38;;;;;;;;;;5063466;28;20193;-70
2022/11/10 04:38:29;;;;;;;5.60;2.50;;;;;;;;;;5062996;28;20193;-70
2022/11/10 04:40:55;;;;;;;4.18;2.03;;;;;;;;;;5063283;28;20280;-70
2022/11/10 04:43:21;;;;;;;2.30;2.08;;;;;;;;;;5063083;28;20641;-70
2022/11/10 04:45:48;;;;;;;3.72;2.05;;;;;;;;;;5063178;28;20281;-70
2022/11/10 04:48:14;;;;;;;4.75;2.20;;;;;;;;;;5062909;28;20221;-70
2022/11/10 04:50:40;;;;;;;3.03;2.00;;;;;;;;;;5063195;28;20197;-70
2022/11/10 04:53:08;;;;;;;5.18;1.92;;;;;;;;;;5063205;28;20197;-70
2022/11/10 04:55:34;;;;;;;4.97;2.17;;;;;;;;;;5062971;28;20197;-70
2022/11/10 04:58:01;;;;;;;2.33;2.10;;;;;;;;;;5062838;28;20400;-70
2022/11/10 05:00:27;;;;;;;4.90;2.65;;;;;;;;;;5063222;28;20226;-70
2022/11/10 05:02:53;;;;;;;4.75;2.10;;;;;;;;;;5063133;28;20225;-70
2022/11/10 05:05:19;;;;;;;2.00;1.90;;;;;;;;;;5063280;28;20519;-70
2022/11/10 05:07:47;;;;;;;2.00;1.83;;;;;;;;;;5063185;28;20223;-70
2022/11/10 05:10:14;;;;;;;2.13;1.73;;;;;;;;;;5063201;28;20374;-70
2022/11/10 05:12:41;;;;;;;2.95;1.67;;;;;;;;;;5062848;28;20260;-70
2022/11/10 05:15:08;;;;;;;2.83;2.20;;;;;;;;;;5062947;28;20197;-70
2022/11/10 05:17:34;;;;;;;3.10;2.10;;;;;;;;;;5062789;28;20193;-70
2022/11/10 05:20:00;;;;;;;2.83;1.77;;;;;;;;;;5062725;28;20213;-70
2022/11/10 05:22:26;;;;;;;2.85;1.85;;;;;;;;;;5062767;28;20209;-70
2022/11/10 05:24:53;;;;;;;2.28;2.00;;;;;;;;;;5062709;28;20204;-70
2022/11/10 05:27:20;;;;;;;2.42;2.20;;;;;;;;;;5062386;28;20203;-70
2022/11/10 05:29:47;;;;;;;5.95;1.77;;;;;;;;;;5062439;28;20199;-70
2022/11/10 05:32:13;;;;;;;2.63;2.10;;;;;;;;;;5062936;28;20201;-70
2022/11/10 05:34:39;;;;;;;4.05;1.95;;;;;;;;;;5062770;28;20509;-70
2022/11/10 05:37:06;;;;;;;4.40;2.28;;;;;;;;;;5062662;28;20197;-70
2022/11/10 05:39:32;;;;;;;2.15;2.03;;;;;;;;;;5062173;28;20530;-70
2022/11/10 05:41:58;;;;;;;2.90;2.50;;;;;;;;;;5062318;28;20197;-70
2022/11/10 05:44:26;;;;;;;3.20;2.40;;;;;;;;;;5062447;28;20342;-70
2022/11/10 05:46:52;;;;;;;5.28;3.00;;;;;;;;;;5062401;28;20249;-70
2022/11/10 05:49:18;;;;;;;3.45;3.13;;;;;;;;;;5062018;28;20409;-70
2022/11/10 05:51:45;;;;;;;4.15;3.10;;;;;;;;;;5062221;28;20201;-70
2022/11/10 05:54:11;;;;;;;3.17;2.88;;;;;;;;;;5062156;28;20333;-70
2022/11/10 05:56:37;;;;;;;3.38;3.08;;;;;;;;;;5062065;28;20196;-70
2022/11/10 05:59:03;;;;;;;3.28;3.10;;;;;;;;;;5061997;28;20200;-70
2022/11/10 06:01:31;;;;;;;11.07;4.25;;;;;;;;;;5062090;28;20205;-71
2022/11/10 06:03:57;;;;;;;7.63;3.83;;;;;;;;;;5062115;28;20212;-71
2022/11/10 06:06:24;;;;;;;3.92;3.60;;;;;;;;;;5062152;28;20288;-71
2022/11/10 06:08:50;;;;;;;15.65;4.15;;;;;;;;;;5061678;28;20235;-71
2022/11/10 06:11:17;;;;;;;3.50;3.28;;;;;;;;;;5061880;28;20202;-71
2022/11/10 06:13:43;;;;;;;3.50;3.30;;;;;;;;;;5061833;28;20197;-71
2022/11/10 06:16:10;;;;;;;3.17;3.08;;;;;;;;;;5062003;28;20197;-71
2022/11/10 06:18:37;;;;;;;4.20;2.95;;;;;;;;;;5061435;28;20215;-71
2022/11/10 06:21:04;;;;;;;3.72;3.45;;;;;;;;;;5062314;28;20492;-71
2022/11/10 06:23:30;;;;;;;6.35;4.30;;;;;;;;;;5061642;28;20205;-71
2022/11/10 06:25:56;;;;;;;5.00;3.70;;;;;;;;;;5061766;28;20196;-71
2022/11/10 06:28:22;;;;;;;7.60;3.90;;;;;;;;;;5061659;28;20225;-71
2022/11/10 06:30:49;;;;;;;6.13;4.32;;;;;;;;;;5061745;28;20197;-71
2022/11/10 06:33:15;;;;;;;4.22;3.78;;;;;;;;;;5061789;28;20272;-71
2022/11/10 06:35:43;;;;;;;4.43;4.03;;;;;;;;;;5061600;28;20228;-71
2022/11/10 06:38:10;;;;;;;5.47;4.47;;;;;;;;;;5061289;28;20207;-71
2022/11/10 06:40:36;;;;;;;4.72;4.35;;;;;;;;;;5061433;28;20215;-71
2022/11/10 06:43:03;;;;;;;5.68;4.07;;;;;;;;;;5061684;28;20197;-71
2022/11/10 06:45:29;;;;;;;4.80;4.40;;;;;;;;;;5061741;28;20201;-71
2022/11/10 06:47:59;;;;;;;9.77;4.82;;;;;;;;;;5061333;28;20216;-71
2022/11/10 06:50:26;;;;;;;8.32;5.55;;;;;;;;;;5061615;28;20497;-71
2022/11/10 06:52:54;;;;;;;15.07;5.28;;;;;;;;;;5061365;28;20201;-71
2022/11/10 06:55:21;;;;;;;8.80;5.40;;;;;;;;;;5061631;28;20205;-71
2022/11/10 06:57:47;;;;;;;7.40;6.28;;;;;;;;;;5061280;28;20193;-71
2022/11/10 07:00:14;;;;;;;15.38;6.78;;;;;;;;;;5061588;28;20197;-71
2022/11/10 07:02:40;;;;;;;7.93;6.72;;;;;;;;;;5048251;28;20235;-71
2022/11/10 07:05:07;;;;;;;10.10;6.65;;;;;;;;;;5057737;28;20211;-71
2022/11/10 07:07:34;;;;;;;9.70;7.05;;;;;;;;;;5047274;28;20209;-71
2022/11/10 07:10:01;;;;;;;9.18;6.57;;;;;;;;;;5057442;28;20231;-71
2022/11/10 07:12:28;;;;;;;13.77;7.03;;;;;;;;;;5058274;28;20551;-71
2022/11/10 07:14:54;;;;;;;9.70;6.57;;;;;;;;;;5045094;28;20513;-70
2022/11/10 07:17:21;;;;;;;9.73;7.00;;;;;;;;;;5038915;28;20400;-61
2022/11/10 07:19:47;;;;;;;13.32;6.80;;;;;;;;;;5058826;28;20213;-61
2022/11/10 07:22:13;;;;;;;7.32;6.07;;;;;;;;;;5051965;28;20221;-61
2022/11/10 07:24:39;;;;;;;13.57;7.25;;;;;;;;;;5038575;28;20210;-61
2022/11/10 07:27:08;;;;;;;12.43;7.28;;;;;;;;;;5057115;28;20200;-61
2022/11/10 07:29:34;;;;;;;10.65;7.50;;;;;;;;;;5057861;28;20229;-63
2022/11/10 07:32:00;;;;;;;7.78;6.57;;;;;;;;;;5041501;28;20393;-63
2022/11/10 07:34:26;;;;;;;10.20;7.20;;;;;;;;;;5038439;28;20227;-61
2022/11/10 07:36:57;;;;;;;9.02;6.80;;;;;;;;;;5049442;28;20220;-62
2022/11/10 07:39:23;;;;;;;6.50;5.93;;;;;;;;;;5049089;28;20205;-61
2022/11/10 07:41:49;;;;;;;8.85;6.85;;;;;;;;;;5055295;28;20221;-63
2022/11/10 07:44:17;;;;;;;8.60;7.03;;;;;;;;;;5055791;28;20385;-63
2022/11/10 07:46:43;;;;;;;9.65;7.20;;;;;;;;;;5038529;28;20214;-63
2022/11/10 07:49:09;;;;;;;13.40;7.40;;;;;;;;;;5037774;28;20230;-62
2022/11/10 07:51:36;;;;;;;8.57;6.75;;;;;;;;;;5047117;28;20210;-63
2022/11/10 07:54:02;;;;;;;11.25;7.35;;;;;;;;;;5041218;28;20217;-62
2022/11/10 07:56:29;;;;;;;9.15;7.68;;;;;;;;;;5045067;28;20197;-62
2022/11/10 07:58:55;;;;;;;8.73;7.45;;;;;;;;;;5061641;28;20208;-63
2022/11/10 08:01:23;;;;;;;11.98;8.48;;;;;;;;;;5046865;28;20205;-62
2022/11/10 08:03:49;;;;;;;8.43;7.63;;;;;;;;;;5053404;28;20214;-62
2022/11/10 08:06:15;;;;;;;10.02;7.47;;;;;;;;;;5041385;28;20525;-62
2022/11/10 08:08:41;;;;;;;9.02;8.07;;;;;;;;;;5041730;28;20225;-62
2022/11/10 08:11:08;;;;;;;8.77;6.97;;;;;;;;;;5044028;28;20206;-62
2022/11/10 08:13:34;;;;;;;9.13;8.00;;;;;;;;;;5062380;28;20228;-62
2022/11/10 08:16:01;;;;;;;10.10;7.85;;;;;;;;;;5057187;28;20206;-62
2022/11/10 08:18:29;;;;;;;8.15;7.35;;;;;;;;;;5041488;28;20210;-62
2022/11/10 08:20:56;;;;;;;9.90;7.30;;;;;;;;;;5045404;28;20549;-62
2022/11/10 08:23:22;;;;;;;8.38;7.38;;;;;;;;;;5040355;28;20263;-62
2022/11/10 08:25:51;;;;;;;7.50;6.80;;;;;;;;;;5041289;28;20213;-61
2022/11/10 08:28:18;;;;;;;9.10;7.63;;;;;;;;;;5041219;28;20237;-63
2022/11/10 08:30:45;;;;;;;8.02;7.30;;;;;;;;;;5042554;28;20206;-62
2022/11/10 08:33:12;;;;;;;9.48;8.10;;;;;;;;;;5060119;28;20208;-62
2022/11/10 08:35:41;;;;;;;7.22;6.53;;;;;;;;;;5044242;28;20216;-62
2022/11/10 08:38:08;;;;;;;8.30;7.50;;;;;;;;;;5043751;28;20217;-62
2022/11/10 08:40:34;;;;;;;7.80;6.95;;;;;;;;;;5060429;28;20216;-62
2022/11/10 08:43:01;;;;;;;9.00;8.10;;;;;;;;;;5060845;28;20213;-61
2022/11/10 08:45:27;;;;;;;9.20;8.02;;;;;;;;;;5060881;28;20213;-62
2022/11/10 08:47:57;;;;;;;11.05;9.13;;;;;;;;;;5060599;28;20236;-60
2022/11/10 08:50:23;;;;;;;12.27;8.82;;;;;;;;;;5059863;28;20205;-61
2022/11/10 08:52:51;;;;;;;15.95;8.48;;;;;;;;;;5040670;28;20205;-62
2022/11/10 08:55:18;;;;;;;9.35;8.45;;;;;;;;;;5041167;28;20216;-61
2022/11/10 08:57:45;;;;;;;10.10;8.27;;;;;;;;;;5056613;28;20390;-62
2022/11/10 09:00:12;;;;;;;10.60;7.85;;;;;;;;;;5059370;28;20212;-62
2022/11/10 09:02:38;;;;;;;8.85;7.95;;;;;;;;;;5060314;28;20217;-62
2022/11/10 09:05:05;;;;;;;10.23;8.27;;;;;;;;;;5045740;28;20213;-62
2022/11/10 09:07:34;;;;;;;9.13;7.82;;;;;;;;;;5049946;28;20221;-62
2022/11/10 09:10:02;;;;;;;10.30;8.88;;;;;;;;;;5059450;28;20229;-62
2022/11/10 09:12:28;;;;;;;16.55;9.98;;;;;;;;;;5048649;28;20436;-64
2022/11/10 09:14:54;;;;;;;10.88;9.55;;;;;;;;;;5041004;28;20209;-61
2022/11/10 09:17:20;;;;;;;12.57;9.63;;;;;;;;;;5051633;28;20217;-61
2022/11/10 09:19:47;;;;;;;12.18;9.45;;;;;;;;;;5057605;28;20504;-61
2022/11/10 09:22:13;;;;;;;10.15;9.10;;;;;;;;;;5046051;28;20205;-60
2022/11/10 09:24:39;;;;;;;7.88;6.85;;;;;;;;;;5060580;28;20209;-62
2022/11/10 09:27:07;;;;;;;6.55;5.95;;;;;;;;;;5056389;28;20590;-61
2022/11/10 09:29:33;;;;;;;6.55;6.00;;;;;;;;;;5040722;28;20232;-62
2022/11/10 09:31:59;;;;;;;6.38;5.90;;;;;;;;;;5039654;28;20497;-61
2022/11/10 09:34:26;;;;;;;7.20;6.47;;;;;;;;;;5044099;28;20406;-62
2022/11/10 09:36:52;;;;;;;10.65;5.85;;;;;;;;;;5048947;28;20209;-62
2022/11/10 09:39:18;;;;;;;12.82;6.50;;;;;;;;;;5039614;28;20198;-62
2022/11/10 09:41:46;;;;;;;9.93;6.10;;;;;;;;;;5039299;28;20213;-63
2022/11/10 09:44:16;;;;;;;5.95;5.25;;;;;;;;;;5040382;28;20525;-63
2022/11/10 09:46:44;;;;;;;6.93;5.47;;;;;;;;;;5039164;28;20598;-61
2022/11/10 09:49:17;;;;;;;5.65;5.25;;;;;;;;;;5044128;28;20244;-61
2022/11/10 09:51:44;;;;;;;5.60;5.20;;;;;;;;;;5039472;28;20212;-62
2022/11/10 09:54:18;;;;;;;5.38;4.90;;;;;;;;;;5050008;28;20280;-61
2022/11/10 09:56:44;;;;;;;5.13;4.72;;;;;;;;;;5052576;28;20202;-62
2022/11/10 09:59:15;;;;;;;4.78;4.30;;;;;;;;;;5040303;28;20201;-62
2022/11/10 10:01:45;;;;;;;5.47;3.83;;;;;;;;;;5043353;28;20209;-62
2022/11/10 10:04:21;;;;;;;4.00;3.70;;;;;;;;;;5047655;28;20231;-61
2022/11/10 10:06:50;;;;;;;5.35;4.18;;;;;;;;;;5049135;28;20196;-62
2022/11/10 10:09:21;;;;;;;4.32;3.97;;;;;;;;;;5059839;28;20240;-61
2022/11/10 10:11:51;;;;;;;5.60;3.80;;;;;;;;;;5058822;28;20231;-61
2022/11/10 10:14:21;;;;;;;4.80;3.58;;;;;;;;;;5039653;28;20205;-62
2022/11/10 10:16:54;;;;;;;4.82;3.67;;;;;;;;;;5039948;28;20206;-62
2022/11/10 10:19:23;;;;;;;3.97;3.22;;;;;;;;;;5039845;28;20498;-61
2022/11/10 10:21:54;;;;;;;3.60;3.33;;;;;;;;;;5039879;28;20214;-62
2022/11/10 10:24:21;;;;;;;4.40;3.05;;;;;;;;;;5052888;28;20209;-62
2022/11/10 10:26:49;;;;;;;4.90;3.28;;;;;;;;;;5056724;28;20518;-62
2022/11/10 10:29:19;;;;;;;3.58;3.28;;;;;;;;;;5056185;28;20236;-62
2022/11/10 10:31:47;;;;;;;6.15;3.25;;;;;;;;;;5058641;28;20209;-63
2022/11/10 10:34:15;;;;;;;3.65;3.42;;;;;;;;;;5059295;28;20215;-63
2022/11/10 10:36:43;;;;;;;5.15;2.95;;;;;;;;;;5058649;28;20209;-63
2022/11/10 10:39:12;;;;;;;3.15;2.95;;;;;;;;;;5045926;28;20209;-62
2022/11/10 10:41:38;;;;;;;5.82;3.20;;;;;;;;;;5054550;28;20209;-62
2022/11/10 10:44:10;;;;;;;5.78;3.10;;;;;;;;;;5047035;28;20221;-61
2022/11/10 10:46:42;;;;;;;5.00;2.65;;;;;;;;;;5039524;28;20200;-61
2022/11/10 10:49:13;;;;;;;3.15;2.95;;;;;;;;;;5056006;28;20232;-62
2022/11/10 10:51:41;;;;;;;4.20;2.42;;;;;;;;;;5058453;28;20446;-63
2022/11/10 10:54:22;;;;;;;2.40;2.17;;;;;;;;;;5058382;28;20307;-63
2022/11/10 10:56:48;;;;;;;2.78;1.83;;;;;;;;;;5054127;28;20202;-63
2022/11/10 10:59:18;;;;;;;2.13;1.70;;;;;;;;;;5038972;28;20202;-63
2022/11/10 11:01:45;;;;;;;2.88;1.20;;;;;;;;;;5042487;28;20216;-63
2022/11/10 11:04:25;;;;;;;4.78;1.65;;;;;;;;;;5045676;28;20216;-63
2022/11/10 11:06:57;;;;;;;2.42;1.42;;;;;;;;;;5058518;28;20208;-62
2022/11/10 11:09:23;;;;;;;3.33;1.27;;;;;;;;;;5058216;28;20252;-63
2022/11/10 11:12:00;;;;;;;2.75;1.00;;;;;;;;;;5058491;28;20216;-63
2022/11/10 11:14:27;;;;;;;6.45;1.25;;;;;;;;;;5058755;28;20205;-62
2022/11/10 11:16:54;;;;;;;2.85;1.13;;;;;;;;;;5041014;28;20509;-62
2022/11/10 11:19:21;;;;;;;1.67;0.95;;;;;;;;;;5041379;28;20532;-62
2022/11/10 11:21:53;;;;;;;1.10;0.95;;;;;;;;;;5057305;28;20209;-62
2022/11/10 11:24:28;;;;;;;2.78;1.02;;;;;;;;;;5057842;28;20213;-62
2022/11/10 11:26:56;;;;;;;2.00;1.17;;;;;;;;;;5056126;28;20326;-62
2022/11/10 11:29:27;;;;;;;1.88;0.80;;;;;;;;;;5043162;28;20443;-62
2022/11/10 11:31:58;;;;;;;2.38;1.17;;;;;;;;;;5060874;28;20209;-62
2022/11/10 11:34:29;;;;;;;5.07;1.33;;;;;;;;;;5056391;28;20301;-62
2022/11/10 11:36:58;;;;;;;1.67;0.80;;;;;;;;;;5056574;28;20217;-61
2022/11/10 11:39:31;;;;;;;4.07;1.08;;;;;;;;;;5058842;28;20209;-62
2022/11/10 11:42:03;;;;;;;2.55;0.88;;;;;;;;;;5043452;28;20209;-62
2022/11/10 11:44:37;;;;;;;1.65;0.73;;;;;;;;;;5046876;28;20205;-62
2022/11/10 11:47:09;;;;;;;1.40;0.90;;;;;;;;;;5041655;28;20209;-62
2022/11/10 11:49:56;;;;;;;2.92;1.00;;;;;;;;;;5041397;28;20225;-62
2022/11/10 11:52:26;;;;;;;4.88;1.05;;;;;;;;;;5037878;28;20206;-62
2022/11/10 11:55:05;;;;;;;1.40;0.80;;;;;;;;;;5041470;28;20205;-62
2022/11/10 11:57:37;;;;;;;5.47;1.08;;;;;;;;;;5046915;28;20243;-62
2022/11/10 12:00:09;;;;;;;1.30;0.63;;;;;;;;;;5041921;28;20202;-62
2022/11/10 12:02:57;;;;;;;1.10;0.63;;;;;;;;;;5040962;28;20216;-62
2022/11/10 12:05:31;;;;;;;2.42;0.80;;;;;;;;;;5059025;28;20208;-62
2022/11/10 12:08:00;;;;;;;5.28;1.05;;;;;;;;;;5060779;28;20524;-62
2022/11/10 12:10:33;;;;;;;3.60;0.80;;;;;;;;;;5061242;28;20228;-62
2022/11/10 12:13:07;;;;;;;3.80;0.75;;;;;;;;;;5061391;28;20223;-63
2022/11/10 12:15:39;;;;;;;2.55;1.02;;;;;;;;;;5061404;28;20209;-63
2022/11/10 12:18:12;;;;;;;8.18;5.32;;;;;;;;;;5060933;28;20431;-63
2022/11/10 12:20:43;;;;;;;26.38;14.55;;;;;;;;;;5061645;28;20400;-62
2022/11/10 12:23:15;;;;;;;7.60;4.90;;;;;;;;;;5054157;28;20248;-62
2022/11/10 12:25:48;;;;;;;10.40;5.50;;;;;;;;;;5055402;28;20244;-62
2022/11/10 12:28:16;;;;;;;14.20;5.65;;;;;;;;;;5052228;28;20235;-61
2022/11/10 12:30:43;;;;;;;1.70;0.90;;;;;;;;;;5042698;28;20234;-62
2022/11/10 12:33:14;;;;;;;1.95;0.50;;;;;;;;;;5040516;28;20216;-63
2022/11/10 12:35:42;;;;;;;2.78;1.25;;;;;;;;;;5041061;28;20209;-62
2022/11/10 12:38:11;;;;;;;2.08;0.80;;;;;;;;;;5039029;28;20211;-61
2022/11/10 12:40:39;;;;;;;3.60;0.75;;;;;;;;;;5044212;28;20200;-63
2022/11/10 12:43:11;;;;;;;1.60;0.73;;;;;;;;;;5058688;28;20213;-61
2022/11/10 12:45:40;;;;;;;2.60;0.73;;;;;;;;;;5047790;28;20214;-61
2022/11/10 12:48:09;;;;;;;1.25;0.70;;;;;;;;;;5044347;28;20523;-61
2022/11/10 12:50:39;;;;;;;4.18;0.93;;;;;;;;;;5035966;28;20256;-62
2022/11/10 12:53:11;;;;;;;1.42;0.60;;;;;;;;;;5049505;28;20228;-61
2022/11/10 12:55:40;;;;;;;3.78;0.90;;;;;;;;;;5042238;28;20219;-61
2022/11/10 12:58:11;;;;;;;1.48;0.50;;;;;;;;;;5042404;28;20210;-63
2022/11/10 13:00:39;;;;;;;1.92;0.63;;;;;;;;;;5056109;28;20420;-63
2022/11/10 13:03:13;;;;;;;1.05;0.57;;;;;;;;;;5048322;28;20419;-63
2022/11/10 13:05:39;;;;;;;5.32;0.85;;;;;;;;;;5039034;28;20590;-63
2022/11/10 13:08:10;;;;;;;0.88;0.70;;;;;;;;;;5042300;28;20213;-63
2022/11/10 13:10:50;;;;;;;1.98;0.70;;;;;;;;;;5053376;28;20248;-62
2022/11/10 13:13:18;;;;;;;2.65;0.80;;;;;;;;;;5056047;28;20284;-62
2022/11/10 13:15:45;;;;;;;2.92;0.90;;;;;;;;;;5053080;28;20210;-63
2022/11/10 13:18:21;;;;;;;2.25;0.68;;;;;;;;;;5040467;28;20542;-62
2022/11/10 13:20:48;;;;;;;3.45;2.22;;;;;;;;;;5056259;28;20208;-62
2022/11/10 13:23:22;;;;;;;4.13;3.72;;;;;;;;;;5038164;28;20418;-62
2022/11/10 13:25:53;;;;;;;1.45;1.40;;;;;;;;;;5036049;28;20228;-62
2022/11/10 13:28:34;;;;;;;4.75;0.90;;;;;;;;;;5036229;28;20248;-65
2022/11/10 13:31:21;;;;;;;1.75;1.25;;;;;;;;;;5052740;28;20228;-65
2022/11/10 13:34:03;;;;;;;3.33;0.90;;;;;;;;;;5050056;28;20383;-61
2022/11/10 13:36:38;;;;;;;0.60;0.60;;;;;;;;;;5036472;28;20213;-64
2022/11/10 13:39:22;;;;;;;4.28;0.75;;;;;;;;;;5035987;28;20611;-62
2022/11/10 13:41:49;;;;;;;2.10;0.75;;;;;;;;;;5035673;28;20213;-61
2022/11/10 13:44:23;;;;;;;2.75;0.88;;;;;;;;;;5035643;28;20210;-62
2022/11/10 13:46:56;;;;;;;1.13;0.60;;;;;;;;;;5036082;28;20553;-63
2022/11/10 13:49:40;;;;;;;3.88;0.90;;;;;;;;;;5036567;28;20224;-62
2022/11/10 13:52:10;;;;;;;2.42;0.77;;;;;;;;;;5049016;28;20281;-62
2022/11/10 13:54:52;;;;;;;3.38;0.70;;;;;;;;;;5036290;28;20216;-62
2022/11/10 13:57:24;;;;;;;7.63;0.70;;;;;;;;;;5036291;28;20541;-61
2022/11/10 13:59:54;;;;;;;1.42;0.70;;;;;;;;;;5037769;28;20206;-61
2022/11/10 14:02:38;;;;;;;1.15;0.60;;;;;;;;;;5036116;28;20213;-61
2022/11/10 14:05:07;;;;;;;2.70;0.68;;;;;;;;;;5035375;28;20217;-62
2022/11/10 14:07:36;;;;;;;2.03;0.75;;;;;;;;;;5034843;28;20220;-62
2022/11/10 14:10:04;;;;;;;0.85;0.40;;;;;;;;;;5035066;28;20630;-61
2022/11/10 14:12:33;;;;;;;2.58;0.60;;;;;;;;;;5035329;28;20222;-61
2022/11/10 14:15:01;;;;;;;3.45;0.82;;;;;;;;;;5052777;28;20220;-60
2022/11/10 14:17:29;;;;;;;4.05;0.90;;;;;;;;;;5054618;28;20221;-61
2022/11/10 14:19:55;;;;;;;4.25;1.08;;;;;;;;;;5052659;28;20401;-61
2022/11/10 14:22:26;;;;;;;4.78;0.95;;;;;;;;;;5036003;28;20213;-63
2022/11/10 14:24:59;;;;;;;3.08;0.77;;;;;;;;;;5042143;28;20214;-62
2022/11/10 14:27:26;;;;;;;1.50;0.90;;;;;;;;;;5034853;28;20240;-62
2022/11/10 14:30:03;;;;;;;1.42;0.70;;;;;;;;;;5035192;28;20240;-62
2022/11/10 14:32:30;;;;;;;0.93;0.60;;;;;;;;;;5040424;28;20215;-62
2022/11/10 14:34:56;;;;;;;2.58;0.50;;;;;;;;;;5051128;28;20546;-62
2022/11/10 14:37:25;;;;;;;3.13;1.13;;;;;;;;;;5034556;28;20213;-62
2022/11/10 14:39:52;;;;;;;2.47;0.70;;;;;;;;;;5038228;28;20456;-62
2022/11/10 14:42:21;;;;;;;1.55;0.63;;;;;;;;;;5054818;28;20219;-62
2022/11/10 14:44:47;;;;;;;2.50;0.82;;;;;;;;;;5054486;28;20219;-62
2022/11/10 14:47:14;;;;;;;4.85;1.67;;;;;;;;;;5054751;28;20212;-61
2022/11/10 14:49:42;;;;;;;3.45;1.65;;;;;;;;;;5035085;28;20210;-61
2022/11/10 14:52:11;;;;;;;2.03;1.00;;;;;;;;;;5039134;28;20213;-62
2022/11/10 14:54:43;;;;;;;8.10;1.40;;;;;;;;;;5054878;28;20235;-62
2022/11/10 14:57:15;;;;;;;5.65;2.45;;;;;;;;;;5054951;28;20564;-62
2022/11/10 14:59:42;;;;;;;1.83;1.63;;;;;;;;;;5049504;28;20232;-62
2022/11/10 15:02:10;;;;;;;2.67;1.42;;;;;;;;;;5048345;28;20214;-62